Time;durP1;ratioP1;P1;durP2;ratioP2;P2;SDS_P1;SDS_P2;PMS_P1;PMS_P2;Temp;Humidity;BMP_temperature;BMP_pressure;BME280_temperature;BME280_humidity;BME280_pressure;Samples;Min_cycle;Max_cycle;Signal;HPM_P1;HPM_P2
2023/05/19 00:00:56;;;;;;;;;17.00;17.00;;;;;13.98;48.70;101879.72;4938745;28;45833;-70
2023/05/19 00:03:23;;;;;;;;;16.33;16.00;;;;;14.20;48.94;101926.78;4938551;28;45431;-70
2023/05/19 00:05:49;;;;;;;;;19.33;19.00;;;;;13.62;49.12;101819.75;4938895;28;45345;-70
2023/05/19 00:08:18;;;;;;;;;19.67;15.67;;;;;14.21;49.42;101919.59;4939026;28;45165;-71
2023/05/19 00:10:43;;;;;;;;;12.00;10.33;;;;;14.27;49.52;101933.28;4938785;28;46772;-70
2023/05/19 00:13:09;;;;;;;;;19.33;16.33;;;;;14.33;49.58;101942.56;4936927;28;45547;-71
2023/05/19 00:15:35;;;;;;;;;15.67;15.67;;;;;14.30;49.90;101943.69;4939095;28;45300;-70
2023/05/19 00:18:00;;;;;;;;;20.00;19.00;;;;;14.06;50.08;101902.28;4938589;28;45399;-71
2023/05/19 00:20:26;;;;;;;;;19.00;17.33;;;;;14.31;50.15;101950.72;4936686;28;48251;-71
2023/05/19 00:22:51;;;;;;;;;21.67;17.33;;;;;13.45;50.30;101799.03;4937229;28;45349;-71
2023/05/19 00:25:17;;;;;;;;;19.33;16.67;;;;;14.30;50.82;101954.41;4938805;28;45526;-70
2023/05/19 00:27:42;;;;;;;;;18.33;17.00;;;;;12.48;50.70;101645.69;4939014;28;45344;-69
2023/05/19 00:30:08;;;;;;;;;20.33;19.33;;;;;14.26;51.32;101946.78;4936956;28;47056;-69
2023/05/19 00:32:34;;;;;;;;;22.33;17.33;;;;;14.24;51.23;101949.59;4938358;28;45233;-69
2023/05/19 00:34:59;;;;;;;;;17.00;16.00;;;;;13.94;51.58;101897.03;4938482;28;45254;-70
2023/05/19 00:37:25;;;;;;;;;19.00;16.67;;;;;14.22;51.63;101950.72;4938698;28;45410;-69
2023/05/19 00:39:50;;;;;;;;;18.67;15.33;;;;;14.16;51.55;101941.41;4938298;28;45537;-70
2023/05/19 00:42:15;;;;;;;;;20.33;19.33;;;;;14.14;51.81;101927.34;4938475;28;45348;-70
2023/05/19 00:44:41;;;;;;;;;19.67;15.00;;;;;14.11;51.81;101926.78;4921212;28;45283;-71
2023/05/19 00:47:07;;;;;;;;;17.67;16.33;;;;;14.22;52.06;101948.91;4938448;28;45664;-71
2023/05/19 00:49:33;;;;;;;;;20.33;16.33;;;;;14.07;51.94;101920.84;4920849;28;48160;-71
2023/05/19 00:52:00;;;;;;;;;20.33;17.67;;;;;14.10;52.29;101939.28;4936779;28;45744;-69
2023/05/19 00:54:26;;;;;;;;;18.00;16.33;;;;;14.13;52.64;101940.84;4938279;28;45301;-70
2023/05/19 00:56:54;;;;;;;;;18.33;17.00;;;;;14.07;52.73;101925.38;4938378;28;45174;-69
2023/05/19 00:59:19;;;;;;;;;24.00;20.00;;;;;14.02;52.93;101939.16;4937871;28;46402;-70
2023/05/19 01:01:47;;;;;;;;;25.33;22.33;;;;;13.92;53.13;101933.75;4938091;28;45274;-70
2023/05/19 01:04:20;;;;;;;;;25.67;22.33;;;;;13.84;52.64;101925.59;4938221;28;45316;-70
2023/05/19 01:06:53;;;;;;;;;19.33;18.33;;;;;13.61;54.11;101903.56;4937020;28;45519;-70
2023/05/19 01:09:20;;;;;;;;;19.33;19.00;;;;;13.55;53.93;101897.91;4937819;28;45612;-70
2023/05/19 01:11:45;;;;;;;;;23.00;18.00;;;;;13.72;54.18;101933.84;4937923;28;45503;-70
2023/05/19 01:14:11;;;;;;;;;14.33;14.33;;;;;13.49;54.65;101898.47;4938050;28;45294;-72
2023/05/19 01:16:46;;;;;;;;;24.00;21.67;;;;;13.38;54.65;101889.53;4937097;28;45503;-70
2023/05/19 01:19:37;;;;;;;;;18.67;18.67;;;;;13.59;54.90;101920.69;4936412;28;47565;-70
2023/05/19 01:22:06;;;;;;;;;19.33;19.00;;;;;13.61;54.93;101924.94;4937915;28;45292;-70
2023/05/19 01:24:46;;;;;;;;;23.67;16.33;;;;;13.59;54.92;101918.88;4938005;28;45333;-69
2023/05/19 01:27:41;;;;;;;;;22.33;20.33;;;;;13.56;54.93;101926.31;4938169;28;45218;-71
2023/05/19 01:30:32;;;;;;;;;23.33;20.67;;;;;13.49;54.93;101904.66;4937095;28;46538;-69
2023/05/19 01:33:01;;;;;;;;;22.00;19.33;;;;;13.44;55.03;101898.03;4940876;28;45549;-71
2023/05/19 01:35:28;;;;;;;;;25.33;22.00;;;;;13.53;55.23;101914.09;4941014;28;45365;-70
2023/05/19 01:37:58;;;;;;;;;19.67;18.00;;;;;13.38;55.57;101889.53;4941349;28;45301;-71
2023/05/19 01:40:25;;;;;;;;;17.67;15.00;;;;;13.51;55.22;101907.19;4939345;28;47443;-70
2023/05/19 01:42:53;;;;;;;;;22.33;21.00;;;;;13.48;55.06;101908.31;4940959;28;45328;-71
2023/05/19 01:45:19;;;;;;;;;18.67;15.33;;;;;13.47;55.83;101911.09;4941166;28;45501;-71
2023/05/19 01:47:47;;;;;;;;;25.00;19.67;;;;;13.34;55.26;101887.28;4941196;28;45265;-70
2023/05/19 01:50:12;;;;;;;;;25.00;19.00;;;;;13.32;56.13;101910.63;4940692;28;46133;-71
2023/05/19 01:52:38;;;;;;;;;22.00;20.33;;;;;13.06;56.27;101881.66;4940836;28;45493;-70
2023/05/19 01:55:04;;;;;;;;;22.00;17.33;;;;;13.13;56.35;101899.78;4940876;28;45328;-70
2023/05/19 01:57:38;;;;;;;;;25.67;23.00;;;;;13.10;56.78;101899.09;4940967;28;45502;-70
2023/05/19 02:00:17;;;;;;;;;29.00;20.00;;;;;13.17;56.76;101918.09;4940683;28;45908;-71
2023/05/19 02:02:57;;;;;;;;;22.67;20.33;;;;;13.16;56.74;101929.75;4940922;28;45208;-70
2023/05/19 02:05:35;;;;;;;;;22.67;19.67;;;;;12.98;57.17;101910.81;4940748;28;45321;-70
2023/05/19 02:08:09;;;;;;;;;21.33;17.67;;;;;12.98;57.39;101915.31;4940684;28;45609;-70
2023/05/19 02:10:38;;;;;;;;;25.33;19.67;;;;;12.94;57.50;101898.72;4938755;28;47451;-70
2023/05/19 02:13:07;;;;;;;;;22.00;20.00;;;;;12.94;57.38;101914.72;4940136;28;45397;-70
2023/05/19 02:15:39;;;;;;;;;21.00;18.33;;;;;12.79;57.47;101884.00;4940574;28;45327;-70
2023/05/19 02:18:07;;;;;;;;;19.00;18.00;;;;;12.90;57.79;101907.97;4940598;28;45291;-70
2023/05/19 02:20:33;;;;;;;;;20.00;18.33;;;;;12.82;57.26;101899.78;4940237;28;46579;-70
2023/05/19 02:22:58;;;;;;;;;18.33;17.33;;;;;12.87;57.27;101907.38;4922777;28;45371;-70
2023/05/19 02:25:24;;;;;;;;;20.67;17.00;;;;;12.83;57.47;101905.94;4940691;28;45352;-70
2023/05/19 02:27:50;;;;;;;;;22.67;21.33;;;;;12.88;57.98;101914.41;4940686;28;45438;-70
2023/05/19 02:30:15;;;;;;;;;22.00;21.00;;;;;12.81;57.46;101900.72;4940042;28;46367;-70
2023/05/19 02:32:41;;;;;;;;;24.33;22.67;;;;;12.72;57.61;101905.03;4940098;28;45435;-70
2023/05/19 02:35:06;;;;;;;;;25.00;20.00;;;;;12.73;57.62;101897.88;4938848;28;45342;-70
2023/05/19 02:37:32;;;;;;;;;22.33;20.00;;;;;12.68;57.49;101887.59;4940292;28;45450;-70
2023/05/19 02:39:57;;;;;;;;;24.33;21.33;;;;;12.48;58.20;101872.41;4939869;28;45439;-70
2023/05/19 02:42:22;;;;;;;;;20.67;20.67;;;;;12.80;57.60;101912.38;4939232;28;51184;-70
2023/05/19 02:44:48;;;;;;;;;23.33;21.67;;;;;12.73;57.70;101898.72;4939881;28;45470;-69
2023/05/19 02:47:13;;;;;;;;;19.67;19.67;;;;;12.74;58.05;101912.91;4940277;28;45229;-70
2023/05/19 02:49:39;;;;;;;;;26.33;21.33;;;;;12.53;57.72;101870.19;4939862;28;47760;-70
2023/05/19 02:52:05;;;;;;;;;24.00;24.00;;;;;12.57;58.56;101892.13;4939880;28;45213;-70
2023/05/19 02:54:32;;;;;;;;;27.00;23.33;;;;;12.64;58.41;101909.31;4940135;28;45259;-69
2023/05/19 02:56:58;;;;;;;;;25.00;21.33;;;;;12.38;57.88;101859.00;4940161;28;45307;-69
2023/05/19 02:59:23;;;;;;;;;24.67;22.67;;;;;12.61;58.09;101897.06;4939366;28;46377;-70
2023/05/19 03:01:56;;;;;;;;;21.00;19.67;;;;;12.60;58.17;101897.19;4939651;28;45347;-71
2023/05/19 03:04:21;;;;;;;;;28.33;23.67;;;;;12.60;58.18;101897.19;4939913;28;45261;-72
2023/05/19 03:06:46;;;;;;;;;28.00;25.00;;;;;12.62;58.07;101906.78;4938759;28;45490;-69
2023/05/19 03:09:15;;;;;;;;;25.00;24.33;;;;;12.52;58.21;101881.00;4938308;28;46457;-71
2023/05/19 03:11:40;;;;;;;;;23.00;21.67;;;;;12.60;58.13;101891.84;4937875;28;45360;-71
2023/05/19 03:14:08;;;;;;;;;19.67;18.00;;;;;12.62;58.47;101900.63;4922329;28;45356;-71
2023/05/19 03:16:33;;;;;;;;;24.33;23.67;;;;;12.37;58.60;101875.13;4939946;28;45450;-70
2023/05/19 03:18:59;;;;;;;;;23.33;22.33;;;;;12.43;58.78;101888.81;4937876;28;46492;-69
2023/05/19 03:21:24;;;;;;;;;23.00;22.00;;;;;12.19;58.64;101846.34;4939523;28;45459;-70
2023/05/19 03:23:50;;;;;;;;;28.33;24.00;;;;;11.74;58.80;101773.69;4939318;28;45808;-71
2023/05/19 03:26:15;;;;;;;;;24.00;21.33;;;;;12.39;58.29;101892.69;4922051;28;45484;-71
2023/05/19 03:28:40;;;;;;;;;24.67;21.67;;;;;12.38;58.85;101908.81;4939346;28;46610;-71
2023/05/19 03:31:06;;;;;;;;;26.33;24.33;;;;;12.39;58.63;101908.69;4939544;28;45763;-70
2023/05/19 03:33:31;;;;;;;;;27.00;24.00;;;;;12.29;58.65;101877.59;4939368;28;45520;-70
2023/05/19 03:35:56;;;;;;;;;27.67;25.00;;;;;12.22;58.56;101869.28;4939539;28;45314;-71
2023/05/19 03:38:22;;;;;;;;;22.67;19.67;;;;;12.18;59.15;101860.66;4938997;28;45785;-70
2023/05/19 03:40:47;;;;;;;;;27.00;24.00;;;;;12.47;59.12;101906.25;4939330;28;45326;-70
2023/05/19 03:43:13;;;;;;;;;28.67;25.33;;;;;11.92;58.84;101815.81;4939040;28;45870;-70
2023/05/19 03:45:38;;;;;;;;;21.67;21.00;;;;;12.40;58.67;101899.72;4922004;28;45404;-70
2023/05/19 03:48:04;;;;;;;;;27.33;25.00;;;;;12.28;58.85;101889.22;4939075;28;45421;-70
2023/05/19 03:50:30;;;;;;;;;24.33;22.67;;;;;12.29;58.74;101882.94;4939101;28;45393;-70
2023/05/19 03:52:55;;;;;;;;;24.33;22.67;;;;;12.29;58.33;101880.25;4939073;28;45276;-70
2023/05/19 03:55:21;;;;;;;;;20.67;19.33;;;;;12.52;58.37;101913.84;4937863;28;45313;-70
2023/05/19 03:57:47;;;;;;;;;24.33;22.00;;;;;12.18;58.22;101851.81;4937363;28;48425;-70
2023/05/19 04:00:13;;;;;;;;;22.67;22.33;;;;;12.55;57.78;101907.41;4938586;28;45235;-70
2023/05/19 04:02:39;;;;;;;;;25.00;24.00;;;;;12.52;58.20;101907.69;4938815;28;45383;-70
2023/05/19 04:05:05;;;;;;;;;25.67;19.67;;;;;12.26;58.42;101876.03;4939149;28;45368;-70
2023/05/19 04:07:31;;;;;;;;;22.00;21.00;;;;;12.35;58.92;101904.59;4938489;28;45824;-70
2023/05/19 04:09:57;;;;;;;;;21.33;21.33;;;;;12.26;58.94;101894.69;4938275;28;45525;-70
2023/05/19 04:12:22;;;;;;;;;29.67;25.33;;;;;12.28;58.75;101889.22;4938497;28;45365;-70
2023/05/19 04:14:48;;;;;;;;;27.67;23.67;;;;;12.40;58.75;101907.72;4938765;28;45324;-70
2023/05/19 04:17:13;;;;;;;;;27.00;23.00;;;;;12.40;58.84;101906.88;4938621;28;46283;-70
2023/05/19 04:19:39;;;;;;;;;25.00;21.67;;;;;12.40;58.38;101902.38;4920908;28;54972;-69
2023/05/19 04:22:04;;;;;;;;;24.67;21.67;;;;;12.43;58.39;101906.63;4937402;28;45424;-71
2023/05/19 04:24:30;;;;;;;;;28.00;24.33;;;;;12.43;58.64;101907.47;4938775;28;45269;-71
2023/05/19 04:26:55;;;;;;;;;22.33;21.67;;;;;11.77;58.29;101800.06;4938374;28;45315;-71
2023/05/19 04:29:22;;;;;;;;;25.67;20.00;;;;;12.33;58.46;101898.53;4921122;28;45555;-71
2023/05/19 04:31:48;;;;;;;;;29.33;26.33;;;;;11.66;58.61;101781.47;4938615;28;45580;-71
2023/05/19 04:34:13;;;;;;;;;24.67;21.33;;;;;11.68;58.46;101792.00;4938760;28;45446;-71
2023/05/19 04:36:38;;;;;;;;;26.33;21.00;;;;;12.37;58.27;101891.13;4938379;28;46523;-71
2023/05/19 04:39:08;;;;;;;;;35.67;25.33;;;;;12.42;58.51;101907.59;4938066;28;45252;-71
2023/05/19 04:41:34;;;;;;;;;34.00;24.67;;;;;11.79;58.45;101798.16;4938213;28;45371;-70
2023/05/19 04:43:59;;;;;;;;;24.67;21.67;;;;;12.50;58.32;101915.81;4938446;28;45408;-70
2023/05/19 04:46:25;;;;;;;;;27.00;25.00;;;;;12.44;58.07;101897.66;4937913;28;45603;-71
2023/05/19 04:48:52;;;;;;;;;23.00;22.00;;;;;12.51;58.01;101895.31;4938265;28;45660;-70
2023/05/19 04:51:18;;;;;;;;;26.00;24.33;;;;;12.50;57.55;101883.81;4938228;28;45309;-71
2023/05/19 04:53:44;;;;;;;;;25.00;24.00;;;;;12.56;57.64;101898.44;4938463;28;45228;-71
2023/05/19 04:56:14;;;;;;;;;25.67;25.00;;;;;12.63;57.80;101926.31;4938218;28;46970;-71
2023/05/19 04:58:40;;;;;;;;;26.00;26.00;;;;;12.60;57.58;101915.88;4937917;28;45373;-71
2023/05/19 05:01:05;;;;;;;;;21.67;18.67;;;;;12.34;57.37;101884.22;4938338;28;45303;-70
2023/05/19 05:03:33;;;;;;;;;24.00;23.67;;;;;12.48;57.54;101913.28;4938170;28;45396;-71
2023/05/19 05:05:58;;;;;;;;;29.33;26.00;;;;;12.38;57.96;101907.00;4939891;28;46303;-71
2023/05/19 05:08:24;;;;;;;;;24.67;23.67;;;;;12.52;57.92;101931.69;4941173;28;45229;-71
2023/05/19 05:10:53;;;;;;;;;28.00;25.00;;;;;12.59;57.35;101939.03;4941516;28;45523;-70
2023/05/19 05:13:22;;;;;;;;;28.00;22.67;;;;;12.59;57.18;101919.50;4941038;28;45542;-70
2023/05/19 05:15:47;;;;;;;;;28.00;24.00;;;;;12.46;57.08;101893.03;4941129;28;45730;-71
2023/05/19 05:18:14;;;;;;;;;30.00;26.67;;;;;12.75;56.66;101943.94;4939340;28;45332;-71
2023/05/19 05:20:43;;;;;;;;;26.00;26.00;;;;;12.34;56.67;101862.91;4941539;28;45462;-71
2023/05/19 05:23:13;;;;;;;;;22.00;21.67;;;;;12.83;56.50;101946.00;4941190;28;45411;-71
2023/05/19 05:25:42;;;;;;;;;29.33;25.67;;;;;12.67;56.38;101920.59;4939588;28;47959;-71
2023/05/19 05:28:07;;;;;;;;;28.33;24.00;;;;;12.90;56.30;101945.31;4940666;28;45405;-71
2023/05/19 05:30:33;;;;;;;;;28.67;22.67;;;;;12.78;56.80;101925.00;4941009;28;45446;-71
2023/05/19 05:32:59;;;;;;;;;25.33;25.33;;;;;12.80;56.19;101923.03;4941442;28;45315;-71
2023/05/19 05:35:25;;;;;;;;;27.33;25.33;;;;;12.87;56.26;101924.25;4940907;28;46416;-71
2023/05/19 05:37:50;;;;;;;;;24.67;22.67;;;;;13.04;55.88;101938.81;4940768;28;45320;-71
2023/05/19 05:40:16;;;;;;;;;26.67;26.00;;;;;13.13;55.12;101950.53;4941255;28;45340;-71
2023/05/19 05:42:42;;;;;;;;;27.00;23.33;;;;;12.70;55.61;101880.28;4941159;28;45614;-70
2023/05/19 05:45:07;;;;;;;;;27.00;24.67;;;;;13.13;55.35;101955.88;4954467;28;45985;-70
2023/05/19 05:47:33;;;;;;;;;29.33;25.33;;;;;13.01;55.67;101939.94;4941369;28;45874;-74
2023/05/19 05:49:59;;;;;;;;;23.67;22.00;;;;;12.16;55.12;101801.28;4941587;28;45944;-74
2023/05/19 05:52:29;;;;;;;;;30.00;23.67;;;;;13.00;55.25;101940.88;4942253;28;45564;-72
2023/05/19 05:54:55;;;;;;;;;23.67;22.67;;;;;13.14;55.14;101952.22;4959415;28;48417;-73
2023/05/19 05:57:20;;;;;;;;;22.67;22.00;;;;;13.23;55.47;101954.16;4959585;28;45768;-72
2023/05/19 05:59:46;;;;;;;;;26.33;25.67;;;;;13.29;55.16;101941.09;4959935;28;45529;-72
2023/05/19 06:02:11;;;;;;;;;25.00;24.33;;;;;13.39;54.26;101941.16;4941089;28;45576;-73
2023/05/19 06:04:37;;;;;;;;;32.00;28.00;;;;;13.49;53.68;101941.22;4941622;28;47456;-72
2023/05/19 06:07:02;;;;;;;;;28.67;26.67;;;;;13.59;54.05;101958.09;4959788;28;45501;-72
2023/05/19 06:09:29;;;;;;;;;25.67;23.67;;;;;13.68;53.87;101936.78;4959593;28;45296;-73
2023/05/19 06:11:59;;;;;;;;;23.00;22.33;;;;;14.17;53.22;101951.13;4959291;28;45539;-74
2023/05/19 06:14:24;;;;;;;;;24.33;22.00;;;;;14.69;51.52;101942.91;4937591;28;47341;-73
2023/05/19 06:16:49;;;;;;;;;30.33;24.00;;;;;15.30;49.92;101935.31;4957553;28;45516;-74
2023/05/19 06:19:15;;;;;;;;;19.33;19.33;;;;;15.52;48.81;101857.22;4941904;28;45225;-74
2023/05/19 06:21:41;;;;;;;;;22.67;17.00;;;;;16.25;46.55;101912.72;4959942;28;45299;-75
2023/05/19 06:24:07;;;;;;;;;22.67;19.33;;;;;16.84;45.70;101946.19;4957852;28;48279;-72
2023/05/19 06:26:32;;;;;;;;;20.00;19.67;;;;;17.33;44.64;101955.41;4941533;28;46140;-74
2023/05/19 06:28:57;;;;;;;;;25.67;22.33;;;;;17.76;44.34;101949.13;4959093;28;45249;-74
2023/05/19 06:31:25;;;;;;;;;21.33;20.33;;;;;18.15;42.67;101922.50;4959131;28;46529;-73
2023/05/19 06:33:50;;;;;;;;;24.00;22.00;;;;;18.47;41.26;101951.34;4959168;28;45612;-73
2023/05/19 06:36:16;;;;;;;;;23.67;18.67;;;;;18.74;41.03;101927.81;4941322;28;45320;-72
2023/05/19 06:38:41;;;;;;;;;25.00;21.67;;;;;19.06;40.45;101910.78;4941029;28;45465;-74
2023/05/19 06:41:06;;;;;;;;;25.33;23.00;;;;;19.33;39.74;101923.03;4958377;28;48869;-74
2023/05/19 06:43:31;;;;;;;;;21.67;17.00;;;;;19.17;38.63;101871.84;4958458;28;54877;-74
2023/05/19 06:45:57;;;;;;;;;19.33;18.33;;;;;19.72;38.54;101950.91;4958912;28;53319;-72
2023/05/19 06:48:22;;;;;;;;;17.67;14.00;;;;;20.08;38.46;101938.78;4955724;28;45768;-72
2023/05/19 06:50:49;;;;;;;;;16.67;14.00;;;;;20.54;37.90;101945.09;4941117;28;45538;-71
2023/05/19 06:53:15;;;;;;;;;22.67;22.67;;;;;20.90;36.73;101927.22;4958598;28;46750;-72
2023/05/19 06:55:41;;;;;;;;;13.00;12.33;;;;;21.31;35.65;101923.28;4958445;28;45477;-72
2023/05/19 06:58:06;;;;;;;;;24.00;21.00;;;;;21.73;34.87;101941.56;4958495;28;45383;-70
2023/05/19 07:00:32;;;;;;;;;22.33;20.67;;;;;21.88;34.81;101931.56;4958600;28;45337;-71
2023/05/19 07:02:57;;;;;;;;;18.00;16.00;;;;;21.63;34.05;101908.56;4959022;28;46395;-72
2023/05/19 07:05:23;;;;;;;;;17.33;16.00;;;;;21.75;34.43;101923.28;4958304;28;52637;-71
2023/05/19 07:07:48;;;;;;;;;21.00;19.00;;;;;21.86;34.08;101931.75;4941501;28;45273;-71
2023/05/19 07:10:13;;;;;;;;;29.00;21.67;;;;;21.90;34.07;101874.53;4959014;28;45240;-72
2023/05/19 07:12:39;;;;;;;;;24.00;19.33;;;;;22.50;33.17;101909.34;4958470;28;46527;-72
2023/05/19 07:15:04;;;;;;;;;24.00;19.33;;;;;22.55;32.37;101915.03;4958547;28;45246;-72
2023/05/19 07:17:30;;;;;;;;;20.00;18.67;;;;;22.77;33.36;101927.53;4930007;28;45277;-73
2023/05/19 07:19:55;;;;;;;;;17.67;16.33;;;;;23.17;32.48;101925.16;4939486;28;45441;-74
2023/05/19 07:22:22;;;;;;;;;23.33;18.00;;;;;23.64;31.80;101904.59;4940190;28;49931;-72
2023/05/19 07:24:48;;;;;;;;;21.00;18.67;;;;;24.08;30.50;101923.13;4957078;28;45967;-72
2023/05/19 07:27:14;;;;;;;;;22.33;19.67;;;;;24.34;30.61;101916.94;4958390;28;45449;-72
2023/05/19 07:29:39;;;;;;;;;24.00;20.33;;;;;24.20;29.89;101893.47;4958739;28;45270;-73
2023/05/19 07:32:05;;;;;;;;;18.33;18.33;;;;;24.48;29.74;101902.34;4957630;28;46525;-74
2023/05/19 07:34:30;;;;;;;;;19.00;19.00;;;;;24.38;29.76;101850.25;4957905;28;45517;-76
2023/05/19 07:36:56;;;;;;;;;18.00;17.33;;;;;25.29;29.64;101915.72;4959630;28;45894;-76
2023/05/19 07:39:22;;;;;;;;;17.67;16.67;;;;;25.55;28.54;101903.91;4959499;28;45325;-74
2023/05/19 07:41:51;;;;;;;;;22.67;19.33;;;;;25.80;28.03;101905.91;4949958;28;46586;-75
2023/05/19 07:44:17;;;;;;;;;17.33;16.00;;;;;25.96;27.72;101908.16;4940480;28;45269;-73
2023/05/19 07:46:42;;;;;;;;;23.00;23.00;;;;;26.04;27.32;101907.91;4963710;28;45467;-79
2023/05/19 07:49:08;;;;;;;;;18.67;18.67;;;;;26.19;27.93;101916.59;4950493;28;45317;-76
2023/05/19 07:51:33;;;;;;;;;25.00;18.33;;;;;26.06;28.23;101908.53;4940027;28;47817;-76
2023/05/19 07:53:58;;;;;;;;;22.33;18.67;;;;;26.13;27.45;101903.88;4956924;28;45402;-75
2023/05/19 07:56:24;;;;;;;;;19.00;16.33;;;;;25.69;27.52;101818.41;4930025;28;45491;-76
2023/05/19 07:58:49;;;;;;;;;19.33;17.00;;;;;26.19;27.07;101896.69;4953809;28;45330;-75
2023/05/19 08:01:15;;;;;;;;;19.00;17.00;;;;;26.04;27.44;101914.19;4957407;28;46622;-74
2023/05/19 08:03:40;;;;;;;;;15.67;15.67;;;;;25.91;27.05;101869.81;4949505;28;45582;-78
2023/05/19 08:06:06;;;;;;;;;21.00;18.00;;;;;25.78;27.35;101897.97;4940293;28;45541;-76
2023/05/19 08:08:32;;;;;;;;;15.33;15.33;;;;;26.04;27.86;101907.91;4944131;28;45667;-76
2023/05/19 08:11:01;;;;;;;;;18.33;17.33;;;;;26.28;27.37;101877.13;4939538;28;46722;-73
2023/05/19 08:13:26;;;;;;;;;22.67;19.33;;;;;26.81;27.23;101901.28;4936392;28;46112;-73
2023/05/19 08:15:58;;;;;;;;;19.00;16.67;;;;;27.13;26.15;101896.59;4945298;28;45422;-74
2023/05/19 08:18:23;;;;;;;;;10.67;10.67;;;;;26.90;26.73;101847.25;4943959;28;45440;-75
2023/05/19 08:20:49;;;;;;;;;18.00;17.67;;;;;27.17;26.10;101875.13;4954184;28;46006;-71
2023/05/19 08:23:14;;;;;;;;;16.67;15.33;;;;;27.30;26.03;101891.38;4941398;28;45245;-71
2023/05/19 08:25:39;;;;;;;;;16.67;16.67;;;;;27.53;25.87;101885.22;4938468;28;46131;-73
2023/05/19 08:28:05;;;;;;;;;21.67;17.33;;;;;27.55;25.74;101870.28;4945111;28;45670;-74
2023/05/19 08:30:30;;;;;;;;;19.00;16.00;;;;;27.79;25.57;101875.88;4955928;28;46546;-73
2023/05/19 08:32:56;;;;;;;;;18.00;15.00;;;;;27.46;25.32;101895.41;4945629;28;45213;-72
2023/05/19 08:35:21;;;;;;;;;17.00;17.00;;;;;27.53;25.93;101880.59;4921176;28;45536;-72
2023/05/19 08:37:46;;;;;;;;;24.67;20.67;;;;;27.78;25.20;101882.41;4922321;28;45505;-72
2023/05/19 08:40:16;;;;;;;;;23.00;22.00;;;;;27.86;25.47;101882.94;4950393;28;46533;-74
2023/05/19 08:42:42;;;;;;;;;22.67;20.67;;;;;28.13;25.30;101874.34;4942254;28;46309;-75
2023/05/19 08:45:08;;;;;;;;;25.00;23.33;;;;;28.62;24.93;101875.91;4957315;28;45233;-74
2023/05/19 08:47:34;;;;;;;;;17.67;17.67;;;;;28.23;24.74;101846.44;4940423;28;45721;-75
2023/05/19 08:50:06;;;;;;;;;21.33;16.00;;;;;28.45;23.86;101866.75;4942498;28;46822;-78
2023/05/19 08:52:31;;;;;;;;;16.00;15.00;;;;;28.38;24.93;101860.53;4958989;28;45366;-80
2023/05/19 08:55:08;;;;;;;;;18.33;14.00;;;;;28.84;24.64;101864.41;4941623;28;45553;-73
2023/05/19 08:57:35;;;;;;;;;19.67;19.00;;;;;29.12;24.24;101839.03;4940713;28;45498;-76
2023/05/19 09:00:07;;;;;;;;;22.00;20.67;;;;;29.32;24.01;101834.81;4959953;28;45901;-74
2023/05/19 09:02:35;;;;;;;;;19.33;17.00;;;;;29.71;23.91;101848.78;4942601;28;45460;-74
2023/05/19 09:05:01;;;;;;;;;20.33;18.33;;;;;30.27;23.05;101827.88;4960923;28;45252;-73
2023/05/19 09:07:29;;;;;;;;;20.67;20.67;;;;;30.88;22.24;101848.09;4958082;28;45366;-73
2023/05/19 09:09:55;;;;;;;;;16.33;15.67;;;;;31.41;22.28;101854.84;4941109;28;45426;-73
2023/05/19 09:12:21;;;;;;;;;18.33;17.33;;;;;31.98;21.10;101843.41;4941011;28;45684;-73
2023/05/19 09:14:47;;;;;;;;;17.67;17.67;;;;;32.58;20.40;101840.38;4923683;28;45528;-72
2023/05/19 09:17:14;;;;;;;;;16.67;14.00;;;;;33.16;19.93;101857.81;4941210;28;45352;-73
2023/05/19 09:19:46;;;;;;;;;17.33;17.33;;;;;33.74;19.69;101842.06;4959719;28;47216;-72
2023/05/19 09:22:15;;;;;;;;;19.67;17.67;;;;;34.35;19.21;101819.25;4959144;28;45572;-77
2023/05/19 09:24:41;;;;;;;;;15.33;15.00;;;;;35.04;17.53;101818.56;4950010;28;45335;-75
2023/05/19 09:27:07;;;;;;;;;13.67;13.33;;;;;35.78;17.50;101830.66;4939624;28;45488;-80
2023/05/19 09:29:32;;;;;;;;;12.67;11.00;;;;;36.46;16.73;101827.97;4941500;28;47196;-71
2023/05/19 09:32:00;;;;;;;;;15.67;15.67;;;;;36.44;16.48;101808.00;4941929;28;45490;-75
2023/05/19 09:34:26;;;;;;;;;14.00;13.33;;;;;36.82;15.97;101811.78;4937500;28;45422;-75
2023/05/19 09:36:52;;;;;;;;;15.00;14.00;;;;;37.30;15.85;101817.34;4923859;28;45586;-76
2023/05/19 09:39:19;;;;;;;;;16.33;15.33;;;;;37.39;15.23;101810.00;4923150;28;47791;-73
2023/05/19 09:41:46;;;;;;;;;18.00;17.00;;;;;37.12;15.78;101744.88;4940642;28;45589;-71
2023/05/19 09:44:21;;;;;;;;;13.00;13.00;;;;;37.48;14.95;101752.72;4959845;28;45423;-76
2023/05/19 09:46:50;;;;;;;;;17.00;15.33;;;;;37.97;15.74;101804.97;4942526;28;45494;-74
2023/05/19 09:49:29;;;;;;;;;17.67;14.33;;;;;37.96;14.83;101808.88;4947009;28;46405;-72
2023/05/19 09:51:57;;;;;;;;;12.67;12.67;;;;;37.45;15.25;101762.47;4958451;28;45474;-74
2023/05/19 09:54:23;;;;;;;;;12.33;10.33;;;;;37.57;14.77;101809.19;4958648;28;45515;-74
2023/05/19 09:57:00;;;;;;;;;11.33;10.33;;;;;36.67;15.67;101778.72;4939518;28;45535;-74
2023/05/19 09:59:27;;;;;;;;;12.33;11.67;;;;;35.91;16.01;101796.84;4959567;28;45703;-74
2023/05/19 10:01:57;;;;;;;;;10.00;10.00;;;;;34.64;17.02;101803.78;4955427;28;45559;-72
2023/05/19 10:04:24;;;;;;;;;13.67;11.00;;;;;33.67;18.34;101791.88;4959433;28;45418;-74
2023/05/19 10:06:52;;;;;;;;;10.33;10.33;;;;;32.68;18.52;101812.09;4958577;28;45568;-75
2023/05/19 10:09:25;;;;;;;;;9.67;9.67;;;;;31.20;20.05;101817.22;4957576;28;45758;-77
2023/05/19 10:11:52;;;;;;;;;9.33;9.33;;;;;30.22;20.63;101811.31;4941432;28;46366;-78
2023/05/19 10:14:22;;;;;;;;;10.00;8.67;;;;;29.21;21.29;101789.09;4933862;28;45577;-78
2023/05/19 10:16:49;;;;;;;;;11.00;11.00;;;;;28.54;22.34;101799.66;4959280;28;45780;-79
2023/05/19 10:19:16;;;;;;;;;14.00;10.33;;;;;27.51;23.82;101727.03;4939882;28;47642;-78
2023/05/19 10:21:41;;;;;;;;;10.00;9.67;;;;;27.37;24.38;101810.19;4942412;28;45492;-79
2023/05/19 10:24:07;;;;;;;;;9.67;8.67;;;;;26.53;24.57;101769.97;4941539;28;45524;-78
2023/05/19 10:26:34;;;;;;;;;8.00;8.00;;;;;26.14;24.83;101788.31;4955258;28;45451;-78
2023/05/19 10:29:01;;;;;;;;;12.67;11.00;;;;;25.31;25.67;101790.28;4936456;28;48328;-77
2023/05/19 10:31:26;;;;;;;;;8.00;7.00;;;;;24.36;26.72;101778.94;4958671;28;45503;-80
2023/05/19 10:34:04;;;;;;;;;12.00;9.00;;;;;24.25;27.39;101796.69;4932865;28;45486;-80
2023/05/19 10:36:49;;;;;;;;;8.33;8.33;;;;;23.86;28.44;101789.34;4923171;28;45663;-75
2023/05/19 10:39:26;;;;;;;;;10.00;8.67;;;;;23.47;29.03;101783.78;4941028;28;45585;-79
2023/05/19 10:42:44;;;;;;;;;10.00;9.00;;;;;23.25;28.79;101792.06;4938599;28;45930;-78
2023/05/19 10:45:21;;;;;;;;;8.00;8.00;;;;;22.80;29.15;101803.44;4857692;29;45577;-78
2023/05/19 10:47:48;;;;;;;;;8.67;8.00;;;;;22.48;29.90;101800.31;4938797;28;45557;-79
2023/05/19 10:50:14;;;;;;;;;12.33;10.00;;;;;22.53;30.38;101808.69;4957335;28;47559;-75
2023/05/19 10:52:40;;;;;;;;;9.00;9.00;;;;;22.36;30.76;101802.69;4937013;28;46003;-77
2023/05/19 10:55:16;;;;;;;;;11.00;7.67;;;;;22.25;31.27;101808.66;4939804;28;45546;-78
2023/05/19 10:57:57;;;;;;;;;13.67;11.33;;;;;21.75;32.67;101801.47;4940987;28;45506;-76
2023/05/19 11:00:27;;;;;;;;;10.00;10.00;;;;;21.12;32.63;101697.50;4938213;28;48005;-79
2023/05/19 11:02:55;;;;;;;;;9.33;9.00;;;;;21.73;32.97;101798.13;4954833;28;46274;-78
2023/05/19 11:05:27;;;;;;;;;5.67;5.67;;;;;21.36;32.73;101702.59;4955774;28;45438;-78
2023/05/19 11:08:04;;;;;;;;;12.67;10.00;;;;;21.94;31.96;101787.28;4955948;28;45382;-77
2023/05/19 11:10:31;;;;;;;;;16.00;15.00;;;;;21.92;32.33;101777.69;4941889;28;45615;-76